sensor_id;sensor_type;location;lat;lon;timestamp;pressure;altitude;pressure_sealevel;temperature;humidity
20909;BME280;10614;53.198;6.570;2023-02-04T00:00:00;103121.34;;;6.33;100.00
20909;BME280;10614;53.198;6.570;2023-02-04T00:02:02;103112.66;;;6.34;100.00
20909;BME280;10614;53.198;6.570;2023-02-04T00:04:04;103117.00;;;6.36;100.00
20909;BME280;10614;53.198;6.570;2023-02-04T00:06:06;103111.78;;;6.36;100.00
20909;BME280;10614;53.198;6.570;2023-02-04T00:08:08;103114.44;;;6.37;100.00
20909;BME280;10614;53.198;6.570;2023-02-04T00:10:12;103119.66;;;6.37;100.00
20909;BME280;10614;53.198;6.570;2023-02-04T00:12:13;103117.88;;;6.36;100.00
20909;BME280;10614;53.198;6.570;2023-02-04T00:14:15;103111.78;;;6.36;100.00
20909;BME280;10614;53.198;6.570;2023-02-04T00:16:17;103119.63;;;6.36;100.00
20909;BME280;10614;53.198;6.570;2023-02-04T00:18:18;103130.09;;;6.36;100.00
20909;BME280;10614;53.198;6.570;2023-02-04T00:20:20;103130.09;;;6.36;100.00
20909;BME280;10614;53.198;6.570;2023-02-04T00:22:22;103138.81;;;6.34;100.00
20909;BME280;10614;53.198;6.570;2023-02-04T00:24:25;103141.41;;;6.34;100.00
20909;BME280;10614;53.198;6.570;2023-02-04T00:26:28;103143.16;;;6.36;100.00
20909;BME280;10614;53.198;6.570;2023-02-04T00:28:30;103154.53;;;6.38;100.00
20909;BME280;10614;53.198;6.570;2023-02-04T00:30:32;103147.56;;;6.38;100.00
20909;BME280;10614;53.198;6.570;2023-02-04T00:32:33;103152.81;;;6.40;100.00
20909;BME280;10614;53.198;6.570;2023-02-04T00:34:35;103147.63;;;6.43;100.00
20909;BME280;10614;53.198;6.570;2023-02-04T00:36:37;103157.22;;;6.44;100.00
20909;BME280;10614;53.198;6.570;2023-02-04T00:38:38;103163.31;;;6.43;100.00
20909;BME280;10614;53.198;6.570;2023-02-04T00:40:40;103168.59;;;6.44;100.00
20909;BME280;10614;53.198;6.570;2023-02-04T00:42:43;103166.84;;;6.45;100.00
20909;BME280;10614;53.198;6.570;2023-02-04T00:44:45;103177.31;;;6.45;100.00
20909;BME280;10614;53.198;6.570;2023-02-04T00:46:46;103184.28;;;6.44;100.00
20909;BME280;10614;53.198;6.570;2023-02-04T00:48:48;103187.69;;;6.40;100.00
20909;BME280;10614;53.198;6.570;2023-02-04T00:50:50;103188.56;;;6.39;100.00
20909;BME280;10614;53.198;6.570;2023-02-04T00:52:53;103183.31;;;6.38;100.00
20909;BME280;10614;53.198;6.570;2023-02-04T00:54:54;103183.28;;;6.36;100.00
20909;BME280;10614;53.198;6.570;2023-02-04T00:56:56;103183.31;;;6.38;100.00
20909;BME280;10614;53.198;6.570;2023-02-04T00:58:59;103185.06;;;6.37;100.00
20909;BME280;10614;53.198;6.570;2023-02-04T01:01:01;103191.16;;;6.38;100.00
20909;BME280;10614;53.198;6.570;2023-02-04T01:03:03;103185.06;;;6.39;100.00
20909;BME280;10614;53.198;6.570;2023-02-04T01:05:05;103178.03;;;6.36;100.00
20909;BME280;10614;53.198;6.570;2023-02-04T01:07:07;103186.75;;;6.35;100.00
20909;BME280;10614;53.198;6.570;2023-02-04T01:09:09;103189.38;;;6.35;100.00
20909;BME280;10614;53.198;6.570;2023-02-04T01:11:10;103196.34;;;6.36;100.00
20909;BME280;10614;53.198;6.570;2023-02-04T01:13:12;103192.88;;;6.36;100.00
20909;BME280;10614;53.198;6.570;2023-02-04T01:15:15;103191.13;;;6.34;100.00
20909;BME280;10614;53.198;6.570;2023-02-04T01:17:17;103197.19;;;6.33;100.00
20909;BME280;10614;53.198;6.570;2023-02-04T01:19:20;103199.81;;;6.33;100.00
20909;BME280;10614;53.198;6.570;2023-02-04T01:21:22;103200.69;;;6.34;100.00
20909;BME280;10614;53.198;6.570;2023-02-04T01:23:23;103202.47;;;6.35;100.00
20909;BME280;10614;53.198;6.570;2023-02-04T01:25:25;103212.06;;;6.36;100.00
20909;BME280;10614;53.198;6.570;2023-02-04T01:27:26;103214.66;;;6.34;100.00
20909;BME280;10614;53.198;6.570;2023-02-04T01:29:28;103218.16;;;6.35;100.00
20909;BME280;10614;53.198;6.570;2023-02-04T01:31:31;103209.41;;;6.33;100.00
20909;BME280;10614;53.198;6.570;2023-02-04T01:33:33;103213.78;;;6.36;100.00
20909;BME280;10614;53.198;6.570;2023-02-04T01:35:34;103210.31;;;6.35;100.00
20909;BME280;10614;53.198;6.570;2023-02-04T01:37:36;103216.38;;;6.34;100.00
20909;BME280;10614;53.198;6.570;2023-02-04T01:39:38;103221.59;;;6.34;100.00
20909;BME280;10614;53.198;6.570;2023-02-04T01:41:39;103237.34;;;6.36;100.00
20909;BME280;10614;53.198;6.570;2023-02-04T01:43:41;103239.97;;;6.36;100.00
20909;BME280;10614;53.198;6.570;2023-02-04T01:45:43;103243.44;;;6.34;100.00
20909;BME280;10614;53.198;6.570;2023-02-04T01:47:47;103242.59;;;6.37;100.00
20909;BME280;10614;53.198;6.570;2023-02-04T01:49:51;103247.84;;;6.39;100.00
20909;BME280;10614;53.198;6.570;2023-02-04T01:51:54;103245.22;;;6.39;100.00
20909;BME280;10614;53.198;6.570;2023-02-04T01:53:56;103252.19;;;6.38;100.00
20909;BME280;10614;53.198;6.570;2023-02-04T01:55:58;103247.00;;;6.40;100.00
20909;BME280;10614;53.198;6.570;2023-02-04T01:58:00;103257.47;;;6.40;100.00
20909;BME280;10614;53.198;6.570;2023-02-04T02:00:05;103256.59;;;6.39;100.00
20909;BME280;10614;53.198;6.570;2023-02-04T02:02:38;103262.69;;;6.40;100.00
20909;BME280;10614;53.198;6.570;2023-02-04T02:04:41;103271.41;;;6.40;100.00
20909;BME280;10614;53.198;6.570;2023-02-04T02:06:46;103264.44;;;6.39;100.00
20909;BME280;10614;53.198;6.570;2023-02-04T02:08:49;103273.16;;;6.41;100.00
20909;BME280;10614;53.198;6.570;2023-02-04T02:10:50;103267.91;;;6.38;100.00
20909;BME280;10614;53.198;6.570;2023-02-04T02:12:52;103264.38;;;6.36;100.00
20909;BME280;10614;53.198;6.570;2023-02-04T02:14:55;103263.47;;;6.32;100.00
20909;BME280;10614;53.198;6.570;2023-02-04T02:16:57;103272.16;;;6.31;100.00
20909;BME280;10614;53.198;6.570;2023-02-04T02:18:59;103271.31;;;6.32;100.00
20909;BME280;10614;53.198;6.570;2023-02-04T02:21:05;103264.28;;;6.31;100.00
20909;BME280;10614;53.198;6.570;2023-02-04T02:23:15;103275.63;;;6.30;100.00
20909;BME280;10614;53.198;6.570;2023-02-04T02:25:21;103284.38;;;6.32;100.00
20909;BME280;10614;53.198;6.570;2023-02-04T02:27:23;103289.63;;;6.32;100.00
20909;BME280;10614;53.198;6.570;2023-02-04T02:29:25;103288.69;;;6.30;100.00
20909;BME280;10614;53.198;6.570;2023-02-04T02:31:27;103291.28;;;6.29;100.00
20909;BME280;10614;53.198;6.570;2023-02-04T02:33:29;103283.44;;;6.29;100.00
20909;BME280;10614;53.198;6.570;2023-02-04T02:35:31;103281.69;;;6.29;100.00
20909;BME280;10614;53.198;6.570;2023-02-04T02:37:32;103282.59;;;6.31;100.00
20909;BME280;10614;53.198;6.570;2023-02-04T02:39:34;103276.53;;;6.32;100.00
20909;BME280;10614;53.198;6.570;2023-02-04T02:41:38;103283.47;;;6.32;100.00
20909;BME280;10614;53.198;6.570;2023-02-04T02:43:40;103264.31;;;6.33;100.00
20909;BME280;10614;53.198;6.570;2023-02-04T02:45:42;103274.84;;;6.34;100.00
20909;BME280;10614;53.198;6.570;2023-02-04T02:47:44;103267.81;;;6.33;100.00
20909;BME280;10614;53.198;6.570;2023-02-04T02:49:46;103279.19;;;6.36;100.00
20909;BME280;10614;53.198;6.570;2023-02-04T02:51:49;103281.78;;;6.34;100.00
20909;BME280;10614;53.198;6.570;2023-02-04T02:53:51;103289.63;;;6.32;100.00
20909;BME280;10614;53.198;6.570;2023-02-04T02:55:52;103288.72;;;6.32;100.00
20909;BME280;10614;53.198;6.570;2023-02-04T02:57:56;103298.38;;;6.34;100.00
20909;BME280;10614;53.198;6.570;2023-02-04T02:59:57;103302.75;;;6.36;100.00
20909;BME280;10614;53.198;6.570;2023-02-04T03:02:00;103304.53;;;6.38;100.00
20909;BME280;10614;53.198;6.570;2023-02-04T03:04:04;103307.19;;;6.40;100.00
20909;BME280;10614;53.198;6.570;2023-02-04T03:06:09;103304.56;;;6.41;100.00
20909;BME280;10614;53.198;6.570;2023-02-04T03:08:13;103304.59;;;6.43;100.00
20909;BME280;10614;53.198;6.570;2023-02-04T03:10:16;103301.13;;;6.44;100.00
20909;BME280;10614;53.198;6.570;2023-02-04T03:12:18;103311.63;;;6.45;100.00
20909;BME280;10614;53.198;6.570;2023-02-04T03:14:22;103316.00;;;6.46;100.00
20909;BME280;10614;53.198;6.570;2023-02-04T03:16:24;103313.41;;;6.46;100.00
20909;BME280;10614;53.198;6.570;2023-02-04T03:18:26;103328.25;;;6.49;100.00
20909;BME280;10614;53.198;6.570;2023-02-04T03:20:30;103318.63;;;6.48;100.00
20909;BME280;10614;53.198;6.570;2023-02-04T03:22:32;103318.63;;;6.48;100.00
20909;BME280;10614;53.198;6.570;2023-02-04T03:24:34;103314.31;;;6.50;100.00
20909;BME280;10614;53.198;6.570;2023-02-04T03:26:36;103327.41;;;6.50;100.00
20909;BME280;10614;53.198;6.570;2023-02-04T03:28:38;103326.53;;;6.49;100.00
20909;BME280;10614;53.198;6.570;2023-02-04T03:30:42;103328.28;;;6.50;100.00
20909;BME280;10614;53.198;6.570;2023-02-04T03:32:43;103332.63;;;6.50;100.00
20909;BME280;10614;53.198;6.570;2023-02-04T03:34:45;103329.19;;;6.51;100.00
20909;BME280;10614;53.198;6.570;2023-02-04T03:36:46;103333.50;;;6.49;100.00
20909;BME280;10614;53.198;6.570;2023-02-04T03:38:48;103336.13;;;6.49;100.00
20909;BME280;10614;53.198;6.570;2023-02-04T03:40:51;103333.47;;;6.47;100.00
20909;BME280;10614;53.198;6.570;2023-02-04T03:42:53;103344.78;;;6.48;100.00
20909;BME280;10614;53.198;6.570;2023-02-04T03:44:54;103354.38;;;6.47;100.00
20909;BME280;10614;53.198;6.570;2023-02-04T03:46:57;103351.72;;;6.46;100.00
20909;BME280;10614;53.198;6.570;2023-02-04T03:48:59;103362.19;;;6.46;100.00
20909;BME280;10614;53.198;6.570;2023-02-04T03:51:00;103358.72;;;6.45;100.00
20909;BME280;10614;53.198;6.570;2023-02-04T03:53:02;103352.56;;;6.42;100.00
20909;BME280;10614;53.198;6.570;2023-02-04T03:55:04;103355.19;;;6.43;100.00
20909;BME280;10614;53.198;6.570;2023-02-04T03:57:06;103362.16;;;6.43;100.00
20909;BME280;10614;53.198;6.570;2023-02-04T03:59:07;103364.75;;;6.41;100.00
20909;BME280;10614;53.198;6.570;2023-02-04T04:01:09;103369.09;;;6.41;100.00
20909;BME280;10614;53.198;6.570;2023-02-04T04:03:12;103376.94;;;6.41;100.00
20909;BME280;10614;53.198;6.570;2023-02-04T04:05:14;103369.06;;;6.38;100.00
20909;BME280;10614;53.198;6.570;2023-02-04T04:07:15;103380.34;;;6.37;100.00
20909;BME280;10614;53.198;6.570;2023-02-04T04:09:17;103382.97;;;6.35;100.00
20909;BME280;10614;53.198;6.570;2023-02-04T04:11:18;103379.38;;;6.31;100.00
20909;BME280;10614;53.198;6.570;2023-02-04T04:13:21;103385.50;;;6.30;100.00
20909;BME280;10614;53.198;6.570;2023-02-04T04:15:22;103383.72;;;6.29;100.00
20909;BME280;10614;53.198;6.570;2023-02-04T04:17:24;103388.97;;;6.31;100.00
20909;BME280;10614;53.198;6.570;2023-02-04T04:19:27;103391.56;;;6.29;100.00
20909;BME280;10614;53.198;6.570;2023-02-04T04:21:31;103386.31;;;6.28;100.00
20909;BME280;10614;53.198;6.570;2023-02-04T04:23:32;103400.22;;;6.27;100.00
20909;BME280;10614;53.198;6.570;2023-02-04T04:25:34;103392.38;;;6.25;100.00
20909;BME280;10614;53.198;6.570;2023-02-04T04:27:35;103392.28;;;6.22;100.00
20909;BME280;10614;53.198;6.570;2023-02-04T04:29:37;103406.28;;;6.23;100.00
20909;BME280;10614;53.198;6.570;2023-02-04T04:31:39;103412.28;;;6.19;100.00
20909;BME280;10614;53.198;6.570;2023-02-04T04:33:40;103414.81;;;6.16;100.00
20909;BME280;10614;53.198;6.570;2023-02-04T04:35:44;103411.41;;;6.18;100.00
20909;BME280;10614;53.198;6.570;2023-02-04T04:37:46;103410.50;;;6.18;100.00
20909;BME280;10614;53.198;6.570;2023-02-04T04:39:47;103424.50;;;6.20;100.00
20909;BME280;10614;53.198;6.570;2023-02-04T04:41:49;103427.94;;;6.17;100.00
20909;BME280;10614;53.198;6.570;2023-02-04T04:43:50;103430.59;;;6.19;100.00
20909;BME280;10614;53.198;6.570;2023-02-04T04:45:52;103434.97;;;6.18;100.00
20909;BME280;10614;53.198;6.570;2023-02-04T04:47:54;103436.72;;;6.19;100.00
20909;BME280;10614;53.198;6.570;2023-02-04T04:49:55;103437.56;;;6.18;100.00
20909;BME280;10614;53.198;6.570;2023-02-04T04:51:58;103439.31;;;6.19;100.00
20909;BME280;10614;53.198;6.570;2023-02-04T04:54:00;103441.06;;;6.20;100.00
20909;BME280;10614;53.198;6.570;2023-02-04T04:56:01;103443.69;;;6.19;100.00
20909;BME280;10614;53.198;6.570;2023-02-04T04:58:03;103444.50;;;6.18;100.00
20909;BME280;10614;53.198;6.570;2023-02-04T05:00:06;103444.50;;;6.16;100.00
20909;BME280;10614;53.198;6.570;2023-02-04T05:02:08;103452.34;;;6.16;100.00
20909;BME280;10614;53.198;6.570;2023-02-04T05:04:09;103454.97;;;6.18;100.00
20909;BME280;10614;53.198;6.570;2023-02-04T05:06:11;103456.72;;;6.17;100.00
20909;BME280;10614;53.198;6.570;2023-02-04T05:08:14;103455.88;;;6.18;100.00
20909;BME280;10614;53.198;6.570;2023-02-04T05:10:16;103454.09;;;6.17;100.00
20909;BME280;10614;53.198;6.570;2023-02-04T05:12:18;103458.47;;;6.17;100.00
20909;BME280;10614;53.198;6.570;2023-02-04T05:14:19;103463.66;;;6.15;100.00
20909;BME280;10614;53.198;6.570;2023-02-04T05:16:21;103460.09;;;6.11;100.00
20909;BME280;10614;53.198;6.570;2023-02-04T05:18:23;103462.72;;;6.11;100.00
20909;BME280;10614;53.198;6.570;2023-02-04T05:20:24;103456.56;;;6.11;100.00
20909;BME280;10614;53.198;6.570;2023-02-04T05:22:26;103466.22;;;6.12;100.00
20909;BME280;10614;53.198;6.570;2023-02-04T05:24:29;103457.44;;;6.10;100.00
20909;BME280;10614;53.198;6.570;2023-02-04T05:26:30;103459.19;;;6.09;100.00
20909;BME280;10614;53.198;6.570;2023-02-04T05:28:32;103471.41;;;6.10;100.00
20909;BME280;10614;53.198;6.570;2023-02-04T05:30:34;103463.53;;;6.09;100.00
20909;BME280;10614;53.198;6.570;2023-02-04T05:32:35;103469.66;;;6.09;100.00
20909;BME280;10614;53.198;6.570;2023-02-04T05:34:37;103475.75;;;6.10;100.00
20909;BME280;10614;53.198;6.570;2023-02-04T05:36:38;103479.22;;;6.09;100.00
20909;BME280;10614;53.198;6.570;2023-02-04T05:38:40;103476.56;;;6.07;100.00
20909;BME280;10614;53.198;6.570;2023-02-04T05:40:43;103490.50;;;6.06;100.00
20909;BME280;10614;53.198;6.570;2023-02-04T05:42:44;103486.16;;;6.07;100.00
20909;BME280;10614;53.198;6.570;2023-02-04T05:44:46;103487.00;;;6.06;100.00
20909;BME280;10614;53.198;6.570;2023-02-04T05:46:48;103491.34;;;6.05;100.00
20909;BME280;10614;53.198;6.570;2023-02-04T05:48:49;103487.84;;;6.05;100.00
20909;BME280;10614;53.198;6.570;2023-02-04T05:50:51;103495.69;;;6.05;100.00
20909;BME280;10614;53.198;6.570;2023-02-04T05:52:52;103499.13;;;6.02;100.00
20909;BME280;10614;53.198;6.570;2023-02-04T05:54:55;103491.28;;;6.02;100.00
20909;BME280;10614;53.198;6.570;2023-02-04T05:56:58;103487.78;;;6.02;100.00
20909;BME280;10614;53.198;6.570;2023-02-04T05:59:00;103495.63;;;6.02;100.00
20909;BME280;10614;53.198;6.570;2023-02-04T06:01:02;103501.69;;;6.01;100.00
20909;BME280;10614;53.198;6.570;2023-02-04T06:03:04;103500.81;;;6.00;100.00
20909;BME280;10614;53.198;6.570;2023-02-04T06:05:06;103503.41;;;5.99;100.00
20909;BME280;10614;53.198;6.570;2023-02-04T06:07:08;103507.75;;;5.98;100.00
20909;BME280;10614;53.198;6.570;2023-02-04T06:09:10;103517.34;;;5.98;100.00
20909;BME280;10614;53.198;6.570;2023-02-04T06:11:12;103517.34;;;5.98;100.00
20909;BME280;10614;53.198;6.570;2023-02-04T06:13:15;103523.44;;;5.98;100.00
20909;BME280;10614;53.198;6.570;2023-02-04T06:15:16;103525.13;;;5.96;100.00
20909;BME280;10614;53.198;6.570;2023-02-04T06:17:19;103526.00;;;5.97;100.00
20909;BME280;10614;53.198;6.570;2023-02-04T06:19:21;103533.84;;;5.97;100.00
20909;BME280;10614;53.198;6.570;2023-02-04T06:21:23;103530.31;;;5.95;100.00
20909;BME280;10614;53.198;6.570;2023-02-04T06:23:25;103544.22;;;5.93;100.00
20909;BME280;10614;53.198;6.570;2023-02-04T06:25:26;103543.38;;;5.95;100.00
20909;BME280;10614;53.198;6.570;2023-02-04T06:27:28;103546.81;;;5.93;100.00
20909;BME280;10614;53.198;6.570;2023-02-04T06:29:31;103541.53;;;5.90;100.00
20909;BME280;10614;53.198;6.570;2023-02-04T06:31:32;103544.16;;;5.90;100.00
20909;BME280;10614;53.198;6.570;2023-02-04T06:33:36;103545.84;;;5.88;100.00
20909;BME280;10614;53.198;6.570;2023-02-04T06:35:38;103553.63;;;5.85;100.00
20909;BME280;10614;53.198;6.570;2023-02-04T06:37:40;103552.72;;;5.83;100.00
20909;BME280;10614;53.198;6.570;2023-02-04T06:39:42;103558.81;;;5.84;100.00
20909;BME280;10614;53.198;6.570;2023-02-04T06:41:43;103550.97;;;5.84;100.00
20909;BME280;10614;53.198;6.570;2023-02-04T06:43:45;103554.41;;;5.81;100.00
20909;BME280;10614;53.198;6.570;2023-02-04T06:45:48;103554.34;;;5.80;100.00
20909;BME280;10614;53.198;6.570;2023-02-04T06:47:51;103556.03;;;5.78;100.00
20909;BME280;10614;53.198;6.570;2023-02-04T06:49:52;103556.91;;;5.77;100.00
20909;BME280;10614;53.198;6.570;2023-02-04T06:51:54;103559.47;;;5.75;100.00
20909;BME280;10614;53.198;6.570;2023-02-04T06:53:55;103560.34;;;5.74;100.00
20909;BME280;10614;53.198;6.570;2023-02-04T06:55:58;103564.59;;;5.70;100.00
20909;BME280;10614;53.198;6.570;2023-02-04T06:58:00;103566.31;;;5.70;100.00
20909;BME280;10614;53.198;6.570;2023-02-04T07:00:02;103582.81;;;5.67;100.00
20909;BME280;10614;53.198;6.570;2023-02-04T07:02:06;103582.75;;;5.66;100.00
20909;BME280;10614;53.198;6.570;2023-02-04T07:04:08;103578.41;;;5.65;100.00
20909;BME280;10614;53.198;6.570;2023-02-04T07:06:10;103589.69;;;5.64;100.00
20909;BME280;10614;53.198;6.570;2023-02-04T07:08:11;103583.50;;;5.60;100.00
20909;BME280;10614;53.198;6.570;2023-02-04T07:10:14;103580.03;;;5.61;100.00
20909;BME280;10614;53.198;6.570;2023-02-04T07:12:16;103585.19;;;5.58;100.00
20909;BME280;10614;53.198;6.570;2023-02-04T07:14:17;103587.81;;;5.58;100.00
20909;BME280;10614;53.198;6.570;2023-02-04T07:16:19;103598.25;;;5.58;100.00
20909;BME280;10614;53.198;6.570;2023-02-04T07:18:22;103602.63;;;5.58;100.00
20909;BME280;10614;53.198;6.570;2023-02-04T07:20:24;103604.34;;;5.57;100.00
20909;BME280;10614;53.198;6.570;2023-02-04T07:22:26;103610.41;;;5.56;100.00
20909;BME280;10614;53.198;6.570;2023-02-04T07:24:27;103610.28;;;5.52;100.00
20909;BME280;10614;53.198;6.570;2023-02-04T07:26:29;103612.03;;;5.51;100.00
20909;BME280;10614;53.198;6.570;2023-02-04T07:28:30;103614.69;;;5.53;100.00
20909;BME280;10614;53.198;6.570;2023-02-04T07:30:32;103625.13;;;5.53;100.00
20909;BME280;10614;53.198;6.570;2023-02-04T07:32:34;103626.81;;;5.50;100.00
20909;BME280;10614;53.198;6.570;2023-02-04T07:34:37;103636.34;;;5.48;100.00
20909;BME280;10614;53.198;6.570;2023-02-04T07:36:41;103634.59;;;5.49;100.00
20909;BME280;10614;53.198;6.570;2023-02-04T07:38:42;103638.97;;;5.48;100.00
20909;BME280;10614;53.198;6.570;2023-02-04T07:40:44;103637.16;;;5.47;100.00
20909;BME280;10614;53.198;6.570;2023-02-04T07:42:45;103635.47;;;5.49;100.00
20909;BME280;10614;53.198;6.570;2023-02-04T07:44:47;103645.06;;;5.49;100.00
20909;BME280;10614;53.198;6.570;2023-02-04T07:46:48;103648.47;;;5.46;100.00
20909;BME280;10614;53.198;6.570;2023-02-04T07:48:50;103647.59;;;5.46;100.00
20909;BME280;10614;53.198;6.570;2023-02-04T07:50:53;103645.81;;;5.45;100.00
20909;BME280;10614;53.198;6.570;2023-02-04T07:52:55;103653.69;;;5.46;100.00
20909;BME280;10614;53.198;6.570;2023-02-04T07:54:56;103644.94;;;5.44;100.00
20909;BME280;10614;53.198;6.570;2023-02-04T07:56:58;103648.41;;;5.43;100.00
20909;BME280;10614;53.198;6.570;2023-02-04T07:59:00;103648.31;;;5.40;100.00
20909;BME280;10614;53.198;6.570;2023-02-04T08:01:02;103646.47;;;5.36;100.00
20909;BME280;10614;53.198;6.570;2023-02-04T08:03:03;103661.28;;;5.37;100.00
20909;BME280;10614;53.198;6.570;2023-02-04T08:05:06;103656.00;;;5.36;100.00
20909;BME280;10614;53.198;6.570;2023-02-04T08:07:09;103658.69;;;5.37;100.00
20909;BME280;10614;53.198;6.570;2023-02-04T08:09:11;103672.63;;;5.38;100.00
20909;BME280;10614;53.198;6.570;2023-02-04T08:11:13;103668.28;;;5.38;100.00
20909;BME280;10614;53.198;6.570;2023-02-04T08:13:14;103665.63;;;5.37;100.00
20909;BME280;10614;53.198;6.570;2023-02-04T08:15:16;103663.03;;;5.37;100.00
20909;BME280;10614;53.198;6.570;2023-02-04T08:17:17;103658.69;;;5.37;100.00
20909;BME280;10614;53.198;6.570;2023-02-04T08:19:19;103668.28;;;5.38;100.00
20909;BME280;10614;53.198;6.570;2023-02-04T08:21:21;103670.00;;;5.38;100.00
20909;BME280;10614;53.198;6.570;2023-02-04T08:23:24;103675.22;;;5.38;100.00
20909;BME280;10614;53.198;6.570;2023-02-04T08:25:25;103670.88;;;5.38;100.00
20909;BME280;10614;53.198;6.570;2023-02-04T08:27:28;103677.91;;;5.39;100.00
20909;BME280;10614;53.198;6.570;2023-02-04T08:29:29;103677.91;;;5.39;100.00
20909;BME280;10614;53.198;6.570;2023-02-04T08:31:31;103671.81;;;5.40;100.00
20909;BME280;10614;53.198;6.570;2023-02-04T08:33:33;103680.50;;;5.39;100.00
20909;BME280;10614;53.198;6.570;2023-02-04T08:35:34;103676.09;;;5.37;100.00
20909;BME280;10614;53.198;6.570;2023-02-04T08:37:39;103679.59;;;5.37;100.00
20909;BME280;10614;53.198;6.570;2023-02-04T08:39:42;103691.75;;;5.37;100.00
20909;BME280;10614;53.198;6.570;2023-02-04T08:41:45;103691.75;;;5.37;100.00
20909;BME280;10614;53.198;6.570;2023-02-04T08:43:48;103697.91;;;5.39;100.00
20909;BME280;10614;53.198;6.570;2023-02-04T08:45:49;103697.13;;;5.41;100.00
20909;BME280;10614;53.198;6.570;2023-02-04T08:47:51;103702.41;;;5.44;100.00
20909;BME280;10614;53.198;6.570;2023-02-04T08:49:53;103695.44;;;5.43;100.00
20909;BME280;10614;53.198;6.570;2023-02-04T08:51:54;103697.13;;;5.43;100.00
20909;BME280;10614;53.198;6.570;2023-02-04T08:53:56;103703.28;;;5.43;100.00
20909;BME280;10614;53.198;6.570;2023-02-04T08:55:59;103696.38;;;5.47;100.00
20909;BME280;10614;53.198;6.570;2023-02-04T08:58:00;103705.94;;;5.46;100.00
20909;BME280;10614;53.198;6.570;2023-02-04T09:00:02;103704.28;;;5.48;100.00
20909;BME280;10614;53.198;6.570;2023-02-04T09:02:04;103712.09;;;5.48;100.00
20909;BME280;10614;53.198;6.570;2023-02-04T09:04:06;103709.50;;;5.48;100.00
20909;BME280;10614;53.198;6.570;2023-02-04T09:06:07;103711.25;;;5.49;100.00
20909;BME280;10614;53.198;6.570;2023-02-04T09:08:09;103715.66;;;5.50;100.00
20909;BME280;10614;53.198;6.570;2023-02-04T09:10:11;103719.16;;;5.51;100.00
20909;BME280;10614;53.198;6.570;2023-02-04T09:12:14;103721.69;;;5.48;100.00
20909;BME280;10614;53.198;6.570;2023-02-04T09:14:15;103728.78;;;5.54;100.00
20909;BME280;10614;53.198;6.570;2023-02-04T09:16:17;103732.28;;;5.54;100.00
20909;BME280;10614;53.198;6.570;2023-02-04T09:18:19;103736.69;;;5.55;100.00
20909;BME280;10614;53.198;6.570;2023-02-04T09:20:21;103742.78;;;5.56;100.00
20909;BME280;10614;53.198;6.570;2023-02-04T09:22:23;103741.94;;;5.57;100.00
20909;BME280;10614;53.198;6.570;2023-02-04T09:24:24;103746.28;;;5.56;100.00
20909;BME280;10614;53.198;6.570;2023-02-04T09:26:26;103742.84;;;5.57;100.00
20909;BME280;10614;53.198;6.570;2023-02-04T09:28:29;103742.78;;;5.56;100.00
20909;BME280;10614;53.198;6.570;2023-02-04T09:30:31;103733.22;;;5.56;100.00
20909;BME280;10614;53.198;6.570;2023-02-04T09:32:33;103729.78;;;5.57;100.00
20909;BME280;10614;53.198;6.570;2023-02-04T09:34:34;103732.41;;;5.59;100.00
20909;BME280;10614;53.198;6.570;2023-02-04T09:36:36;103737.69;;;5.60;100.00
20909;BME280;10614;53.198;6.570;2023-02-04T09:38:38;103742.94;;;5.62;100.00
20909;BME280;10614;53.198;6.570;2023-02-04T09:40:41;103743.78;;;5.61;100.00
20909;BME280;10614;53.198;6.570;2023-02-04T09:42:44;103751.69;;;5.64;100.00
20909;BME280;10614;53.198;6.570;2023-02-04T09:44:49;103756.06;;;5.63;100.00
20909;BME280;10614;53.198;6.570;2023-02-04T09:46:54;103762.13;;;5.62;100.00
20909;BME280;10614;53.198;6.570;2023-02-04T09:48:58;103757.84;;;5.64;100.00
20909;BME280;10614;53.198;6.570;2023-02-04T09:51:04;103766.56;;;5.66;100.00
20909;BME280;10614;53.198;6.570;2023-02-04T09:53:06;103771.84;;;5.68;100.00
20909;BME280;10614;53.198;6.570;2023-02-04T09:55:13;103773.66;;;5.70;100.00
20909;BME280;10614;53.198;6.570;2023-02-04T09:57:17;103771.94;;;5.71;100.00
20909;BME280;10614;53.198;6.570;2023-02-04T09:59:21;103770.31;;;5.75;100.00
20909;BME280;10614;53.198;6.570;2023-02-04T10:01:25;103778.22;;;5.78;100.00
20909;BME280;10614;53.198;6.570;2023-02-04T10:03:28;103780.88;;;5.79;100.00
20909;BME280;10614;53.198;6.570;2023-02-04T10:05:31;103779.19;;;5.81;100.00
20909;BME280;10614;53.198;6.570;2023-02-04T10:07:36;103781.81;;;5.83;100.00
20909;BME280;10614;53.198;6.570;2023-02-04T10:09:38;103783.56;;;5.82;100.00
20909;BME280;10614;53.198;6.570;2023-02-04T10:11:41;103788.91;;;5.85;100.00
20909;BME280;10614;53.198;6.570;2023-02-04T10:13:46;103788.09;;;5.88;100.00
20909;BME280;10614;53.198;6.570;2023-02-04T10:15:49;103788.13;;;5.89;100.00
20909;BME280;10614;53.198;6.570;2023-02-04T10:17:57;103784.69;;;5.92;100.00
20909;BME280;10614;53.198;6.570;2023-02-04T10:20:02;103785.59;;;5.92;100.00
20909;BME280;10614;53.198;6.570;2023-02-04T10:22:10;103778.69;;;5.95;100.00
20909;BME280;10614;53.198;6.570;2023-02-04T10:24:17;103780.47;;;5.96;100.00
20909;BME280;10614;53.198;6.570;2023-02-04T10:26:21;103791.88;;;5.98;100.00
20909;BME280;10614;53.198;6.570;2023-02-04T10:28:32;103788.44;;;6.00;100.00
20909;BME280;10614;53.198;6.570;2023-02-04T10:30:38;103788.50;;;6.03;100.00
20909;BME280;10614;53.198;6.570;2023-02-04T10:32:40;103787.69;;;6.04;100.00
20909;BME280;10614;53.198;6.570;2023-02-04T10:34:44;103788.56;;;6.05;100.00
20909;BME280;10614;53.198;6.570;2023-02-04T10:36:48;103788.69;;;6.09;100.00
20909;BME280;10614;53.198;6.570;2023-02-04T10:38:58;103790.50;;;6.12;100.00